sensor_id;sensor_type;location;lat;lon;timestamp;temperature;humidity
71942;DHT22;59997;53.300;-6.260;2024-03-22T00:01:41;9.55;87.72
71942;DHT22;59997;53.300;-6.260;2024-03-22T00:04:07;9.60;87.72
71942;DHT22;59997;53.300;-6.260;2024-03-22T00:06:32;9.65;87.70
71942;DHT22;59997;53.300;-6.260;2024-03-22T00:08:57;9.66;87.56
71942;DHT22;59997;53.300;-6.260;2024-03-22T00:11:23;9.66;87.57
71942;DHT22;59997;53.300;-6.260;2024-03-22T00:13:49;9.69;87.73
71942;DHT22;59997;53.300;-6.260;2024-03-22T00:16:14;9.66;87.70
71942;DHT22;59997;53.300;-6.260;2024-03-22T00:18:40;9.63;87.74
71942;DHT22;59997;53.300;-6.260;2024-03-22T00:21:05;9.62;87.88
71942;DHT22;59997;53.300;-6.260;2024-03-22T00:23:31;9.56;87.83
71942;DHT22;59997;53.300;-6.260;2024-03-22T00:25:56;9.63;87.72
71942;DHT22;59997;53.300;-6.260;2024-03-22T00:28:22;9.67;87.76
71942;DHT22;59997;53.300;-6.260;2024-03-22T00:30:47;9.67;87.67
71942;DHT22;59997;53.300;-6.260;2024-03-22T00:33:13;9.67;87.64
71942;DHT22;59997;53.300;-6.260;2024-03-22T00:35:38;9.63;87.70
71942;DHT22;59997;53.300;-6.260;2024-03-22T00:38:04;9.62;87.54
71942;DHT22;59997;53.300;-6.260;2024-03-22T00:40:29;9.60;87.73
71942;DHT22;59997;53.300;-6.260;2024-03-22T00:42:54;9.53;87.82
71942;DHT22;59997;53.300;-6.260;2024-03-22T00:45:20;9.49;87.65
71942;DHT22;59997;53.300;-6.260;2024-03-22T00:47:45;9.43;87.79
71942;DHT22;59997;53.300;-6.260;2024-03-22T00:50:11;9.39;87.71
71942;DHT22;59997;53.300;-6.260;2024-03-22T00:52:38;9.38;87.50
71942;DHT22;59997;53.300;-6.260;2024-03-22T00:55:04;9.31;87.53
71942;DHT22;59997;53.300;-6.260;2024-03-22T00:57:30;9.25;87.48
71942;DHT22;59997;53.300;-6.260;2024-03-22T00:59:56;9.21;87.42
71942;DHT22;59997;53.300;-6.260;2024-03-22T01:02:21;9.25;87.12
71942;DHT22;59997;53.300;-6.260;2024-03-22T01:04:48;9.25;87.11
71942;DHT22;59997;53.300;-6.260;2024-03-22T01:07:13;9.14;87.35
71942;DHT22;59997;53.300;-6.260;2024-03-22T01:09:39;9.14;86.93
71942;DHT22;59997;53.300;-6.260;2024-03-22T01:12:05;9.10;86.90
71942;DHT22;59997;53.300;-6.260;2024-03-22T01:14:30;9.13;86.85
71942;DHT22;59997;53.300;-6.260;2024-03-22T01:16:56;9.14;86.79
71942;DHT22;59997;53.300;-6.260;2024-03-22T01:19:22;9.04;87.15
71942;DHT22;59997;53.300;-6.260;2024-03-22T01:21:48;9.00;87.24
71942;DHT22;59997;53.300;-6.260;2024-03-22T01:24:14;8.97;87.31
71942;DHT22;59997;53.300;-6.260;2024-03-22T01:26:39;8.94;87.57
71942;DHT22;59997;53.300;-6.260;2024-03-22T01:29:05;8.91;87.69
71942;DHT22;59997;53.300;-6.260;2024-03-22T01:31:30;8.84;87.73
71942;DHT22;59997;53.300;-6.260;2024-03-22T01:33:56;8.81;87.74
71942;DHT22;59997;53.300;-6.260;2024-03-22T01:36:21;8.81;87.67
71942;DHT22;59997;53.300;-6.260;2024-03-22T01:38:47;8.80;87.79
71942;DHT22;59997;53.300;-6.260;2024-03-22T01:41:12;8.77;87.84
71942;DHT22;59997;53.300;-6.260;2024-03-22T01:43:37;8.68;88.01
71942;DHT22;59997;53.300;-6.260;2024-03-22T01:46:04;8.63;88.17
71942;DHT22;59997;53.300;-6.260;2024-03-22T01:48:30;8.66;88.00
71942;DHT22;59997;53.300;-6.260;2024-03-22T01:50:56;8.66;88.12
71942;DHT22;59997;53.300;-6.260;2024-03-22T01:53:22;8.65;88.13
71942;DHT22;59997;53.300;-6.260;2024-03-22T01:55:48;8.52;88.28
71942;DHT22;59997;53.300;-6.260;2024-03-22T01:58:14;8.51;88.14
71942;DHT22;59997;53.300;-6.260;2024-03-22T02:00:39;8.55;87.93
71942;DHT22;59997;53.300;-6.260;2024-03-22T02:03:05;8.55;87.78
71942;DHT22;59997;53.300;-6.260;2024-03-22T02:05:30;8.49;87.81
71942;DHT22;59997;53.300;-6.260;2024-03-22T02:07:56;8.45;87.80
71942;DHT22;59997;53.300;-6.260;2024-03-22T02:10:21;8.46;87.58
71942;DHT22;59997;53.300;-6.260;2024-03-22T02:12:47;8.48;87.62
71942;DHT22;59997;53.300;-6.260;2024-03-22T02:15:12;8.42;87.58
71942;DHT22;59997;53.300;-6.260;2024-03-22T02:17:38;8.35;87.77
71942;DHT22;59997;53.300;-6.260;2024-03-22T02:20:03;8.30;87.98
71942;DHT22;59997;53.300;-6.260;2024-03-22T02:22:30;8.30;88.02
71942;DHT22;59997;53.300;-6.260;2024-03-22T02:24:55;8.23;88.22
71942;DHT22;59997;53.300;-6.260;2024-03-22T02:27:21;8.21;88.29
71942;DHT22;59997;53.300;-6.260;2024-03-22T02:29:46;8.28;88.12
71942;DHT22;59997;53.300;-6.260;2024-03-22T02:32:12;8.23;88.12
71942;DHT22;59997;53.300;-6.260;2024-03-22T02:34:37;8.20;88.15
71942;DHT22;59997;53.300;-6.260;2024-03-22T02:37:03;8.13;88.20
71942;DHT22;59997;53.300;-6.260;2024-03-22T02:39:29;8.20;88.20
71942;DHT22;59997;53.300;-6.260;2024-03-22T02:41:55;8.16;88.09
71942;DHT22;59997;53.300;-6.260;2024-03-22T02:44:21;8.07;88.21
71942;DHT22;59997;53.300;-6.260;2024-03-22T02:46:46;8.06;88.13
71942;DHT22;59997;53.300;-6.260;2024-03-22T02:49:12;8.03;88.05
71942;DHT22;59997;53.300;-6.260;2024-03-22T02:51:38;8.04;87.89
71942;DHT22;59997;53.300;-6.260;2024-03-22T02:54:04;7.92;87.96
71942;DHT22;59997;53.300;-6.260;2024-03-22T02:56:30;7.86;88.02
71942;DHT22;59997;53.300;-6.260;2024-03-22T02:58:55;7.83;87.99
71942;DHT22;59997;53.300;-6.260;2024-03-22T03:01:20;7.72;87.95
71942;DHT22;59997;53.300;-6.260;2024-03-22T03:03:46;7.89;87.52
71942;DHT22;59997;53.300;-6.260;2024-03-22T03:06:11;7.96;87.14
71942;DHT22;59997;53.300;-6.260;2024-03-22T03:08:41;7.87;87.42
71942;DHT22;59997;53.300;-6.260;2024-03-22T03:11:07;7.92;87.45
71942;DHT22;59997;53.300;-6.260;2024-03-22T03:13:32;7.87;87.60
71942;DHT22;59997;53.300;-6.260;2024-03-22T03:15:58;7.76;87.68
71942;DHT22;59997;53.300;-6.260;2024-03-22T03:18:24;7.74;87.89
71942;DHT22;59997;53.300;-6.260;2024-03-22T03:20:49;7.67;87.85
71942;DHT22;59997;53.300;-6.260;2024-03-22T03:23:15;7.61;87.91
71942;DHT22;59997;53.300;-6.260;2024-03-22T03:25:40;7.57;87.99
71942;DHT22;59997;53.300;-6.260;2024-03-22T03:28:06;7.55;87.81
71942;DHT22;59997;53.300;-6.260;2024-03-22T03:30:33;7.58;87.56
71942;DHT22;59997;53.300;-6.260;2024-03-22T03:32:59;7.62;87.14
71942;DHT22;59997;53.300;-6.260;2024-03-22T03:35:25;7.55;87.22
71942;DHT22;59997;53.300;-6.260;2024-03-22T03:37:51;7.54;87.02
71942;DHT22;59997;53.300;-6.260;2024-03-22T03:40:16;7.55;87.08
71942;DHT22;59997;53.300;-6.260;2024-03-22T03:42:42;7.51;86.76
71942;DHT22;59997;53.300;-6.260;2024-03-22T03:45:07;7.43;87.07
71942;DHT22;59997;53.300;-6.260;2024-03-22T03:47:33;7.37;87.33
71942;DHT22;59997;53.300;-6.260;2024-03-22T03:49:59;7.35;87.33
71942;DHT22;59997;53.300;-6.260;2024-03-22T03:52:24;7.54;86.96
71942;DHT22;59997;53.300;-6.260;2024-03-22T03:54:50;7.40;87.31
71942;DHT22;59997;53.300;-6.260;2024-03-22T03:57:15;7.30;87.57
71942;DHT22;59997;53.300;-6.260;2024-03-22T03:59:41;7.30;87.84
71942;DHT22;59997;53.300;-6.260;2024-03-22T04:02:06;7.35;87.64
71942;DHT22;59997;53.300;-6.260;2024-03-22T04:04:32;7.34;87.57
71942;DHT22;59997;53.300;-6.260;2024-03-22T04:06:57;7.26;87.64
71942;DHT22;59997;53.300;-6.260;2024-03-22T04:09:23;7.17;87.78
71942;DHT22;59997;53.300;-6.260;2024-03-22T04:11:49;7.13;87.84
71942;DHT22;59997;53.300;-6.260;2024-03-22T04:14:14;7.17;87.69
71942;DHT22;59997;53.300;-6.260;2024-03-22T04:16:40;7.20;87.69
71942;DHT22;59997;53.300;-6.260;2024-03-22T04:19:05;7.09;87.90
71942;DHT22;59997;53.300;-6.260;2024-03-22T04:21:31;7.06;88.05
71942;DHT22;59997;53.300;-6.260;2024-03-22T04:23:56;7.10;87.80
71942;DHT22;59997;53.300;-6.260;2024-03-22T04:26:22;7.15;87.82
71942;DHT22;59997;53.300;-6.260;2024-03-22T04:28:48;7.20;87.61
71942;DHT22;59997;53.300;-6.260;2024-03-22T04:31:14;7.13;87.68
71942;DHT22;59997;53.300;-6.260;2024-03-22T04:33:39;7.06;87.98
71942;DHT22;59997;53.300;-6.260;2024-03-22T04:36:05;6.98;88.02
71942;DHT22;59997;53.300;-6.260;2024-03-22T04:38:31;6.98;88.08
71942;DHT22;59997;53.300;-6.260;2024-03-22T04:40:57;7.06;87.80
71942;DHT22;59997;53.300;-6.260;2024-03-22T04:43:23;6.96;87.99
71942;DHT22;59997;53.300;-6.260;2024-03-22T04:45:49;6.92;87.96
71942;DHT22;59997;53.300;-6.260;2024-03-22T04:48:20;6.99;87.91
71942;DHT22;59997;53.300;-6.260;2024-03-22T04:50:50;7.05;87.52
71942;DHT22;59997;53.300;-6.260;2024-03-22T04:53:20;6.96;87.75
71942;DHT22;59997;53.300;-6.260;2024-03-22T04:55:49;6.91;87.76
71942;DHT22;59997;53.300;-6.260;2024-03-22T04:58:19;6.93;87.76
71942;DHT22;59997;53.300;-6.260;2024-03-22T05:00:45;6.87;87.81
71942;DHT22;59997;53.300;-6.260;2024-03-22T05:03:11;6.84;87.83
71942;DHT22;59997;53.300;-6.260;2024-03-22T05:05:38;6.75;87.95
71942;DHT22;59997;53.300;-6.260;2024-03-22T05:08:04;6.74;87.99
71942;DHT22;59997;53.300;-6.260;2024-03-22T05:10:30;6.63;88.16
71942;DHT22;59997;53.300;-6.260;2024-03-22T05:12:58;6.77;87.82
71942;DHT22;59997;53.300;-6.260;2024-03-22T05:15:24;6.65;87.90
71942;DHT22;59997;53.300;-6.260;2024-03-22T05:17:57;6.65;87.94
71942;DHT22;59997;53.300;-6.260;2024-03-22T05:20:23;6.58;88.07
71942;DHT22;59997;53.300;-6.260;2024-03-22T05:22:49;6.46;88.10
71942;DHT22;59997;53.300;-6.260;2024-03-22T05:25:14;6.51;88.04
71942;DHT22;59997;53.300;-6.260;2024-03-22T05:27:40;6.48;88.02
71942;DHT22;59997;53.300;-6.260;2024-03-22T05:30:07;6.33;88.16
71942;DHT22;59997;53.300;-6.260;2024-03-22T05:32:33;6.36;88.31
71942;DHT22;59997;53.300;-6.260;2024-03-22T05:34:58;6.41;88.01
71942;DHT22;59997;53.300;-6.260;2024-03-22T05:37:24;6.34;88.14
71942;DHT22;59997;53.300;-6.260;2024-03-22T05:39:50;6.41;87.86
71942;DHT22;59997;53.300;-6.260;2024-03-22T05:42:15;6.39;87.72
71942;DHT22;59997;53.300;-6.260;2024-03-22T05:44:41;6.46;87.57
71942;DHT22;59997;53.300;-6.260;2024-03-22T05:47:06;6.39;87.63
71942;DHT22;59997;53.300;-6.260;2024-03-22T05:49:32;6.29;87.67
71942;DHT22;59997;53.300;-6.260;2024-03-22T05:51:57;6.30;87.66
71942;DHT22;59997;53.300;-6.260;2024-03-22T05:54:23;6.36;87.47
71942;DHT22;59997;53.300;-6.260;2024-03-22T05:56:49;6.26;87.61
71942;DHT22;59997;53.300;-6.260;2024-03-22T05:59:14;6.16;87.85
71942;DHT22;59997;53.300;-6.260;2024-03-22T06:01:40;6.19;88.13
71942;DHT22;59997;53.300;-6.260;2024-03-22T06:04:05;6.13;88.20
71942;DHT22;59997;53.300;-6.260;2024-03-22T06:06:35;6.08;88.41
71942;DHT22;59997;53.300;-6.260;2024-03-22T06:09:03;6.11;88.42
71942;DHT22;59997;53.300;-6.260;2024-03-22T06:11:32;6.01;88.53
71942;DHT22;59997;53.300;-6.260;2024-03-22T06:13:58;6.01;88.50
71942;DHT22;59997;53.300;-6.260;2024-03-22T06:16:23;5.98;88.54
71942;DHT22;59997;53.300;-6.260;2024-03-22T06:18:49;5.93;88.47
71942;DHT22;59997;53.300;-6.260;2024-03-22T06:21:14;6.01;88.47
71942;DHT22;59997;53.300;-6.260;2024-03-22T06:23:40;5.97;88.36
71942;DHT22;59997;53.300;-6.260;2024-03-22T06:26:07;6.02;88.27
71942;DHT22;59997;53.300;-6.260;2024-03-22T06:28:32;5.98;88.27
71942;DHT22;59997;53.300;-6.260;2024-03-22T06:30:58;5.99;88.23
71942;DHT22;59997;53.300;-6.260;2024-03-22T06:33:23;5.95;88.15
71942;DHT22;59997;53.300;-6.260;2024-03-22T06:35:49;5.90;88.13
71942;DHT22;59997;53.300;-6.260;2024-03-22T06:38:14;5.91;88.13
71942;DHT22;59997;53.300;-6.260;2024-03-22T06:40:40;5.97;88.16
71942;DHT22;59997;53.300;-6.260;2024-03-22T06:43:06;6.01;87.92
71942;DHT22;59997;53.300;-6.260;2024-03-22T06:45:31;6.01;87.94
71942;DHT22;59997;53.300;-6.260;2024-03-22T06:47:57;5.91;87.96
71942;DHT22;59997;53.300;-6.260;2024-03-22T06:50:22;5.87;88.01
71942;DHT22;59997;53.300;-6.260;2024-03-22T06:52:52;6.02;87.82
71942;DHT22;59997;53.300;-6.260;2024-03-22T06:55:19;5.90;87.88
71942;DHT22;59997;53.300;-6.260;2024-03-22T06:57:46;5.83;88.02
71942;DHT22;59997;53.300;-6.260;2024-03-22T07:00:12;5.88;87.83
71942;DHT22;59997;53.300;-6.260;2024-03-22T07:02:39;5.93;87.62
71942;DHT22;59997;53.300;-6.260;2024-03-22T07:05:06;5.91;87.56
71942;DHT22;59997;53.300;-6.260;2024-03-22T07:07:31;5.87;87.64
71942;DHT22;59997;53.300;-6.260;2024-03-22T07:09:57;5.98;87.41
71942;DHT22;59997;53.300;-6.260;2024-03-22T07:12:22;6.02;87.38
71942;DHT22;59997;53.300;-6.260;2024-03-22T07:14:48;6.02;87.28
71942;DHT22;59997;53.300;-6.260;2024-03-22T07:17:13;6.11;87.17
71942;DHT22;59997;53.300;-6.260;2024-03-22T07:19:40;6.23;87.04
71942;DHT22;59997;53.300;-6.260;2024-03-22T07:22:06;6.23;87.01
71942;DHT22;59997;53.300;-6.260;2024-03-22T07:24:31;6.30;86.74
71942;DHT22;59997;53.300;-6.260;2024-03-22T07:26:57;6.44;86.43
71942;DHT22;59997;53.300;-6.260;2024-03-22T07:29:23;6.60;85.87
71942;DHT22;59997;53.300;-6.260;2024-03-22T07:31:48;6.60;85.78
71942;DHT22;59997;53.300;-6.260;2024-03-22T07:34:13;6.74;85.70
71942;DHT22;59997;53.300;-6.260;2024-03-22T07:36:39;6.85;85.45
71942;DHT22;59997;53.300;-6.260;2024-03-22T07:39:05;6.99;85.18
71942;DHT22;59997;53.300;-6.260;2024-03-22T07:41:33;7.05;84.87
71942;DHT22;59997;53.300;-6.260;2024-03-22T07:44:00;7.19;84.50
71942;DHT22;59997;53.300;-6.260;2024-03-22T07:46:26;7.23;84.38
71942;DHT22;59997;53.300;-6.260;2024-03-22T07:48:52;7.33;84.17
71942;DHT22;59997;53.300;-6.260;2024-03-22T07:51:17;7.47;83.91
71942;DHT22;59997;53.300;-6.260;2024-03-22T07:53:43;7.52;83.68
71942;DHT22;59997;53.300;-6.260;2024-03-22T07:56:09;7.75;83.64
71942;DHT22;59997;53.300;-6.260;2024-03-22T07:58:34;7.97;82.77
71942;DHT22;59997;53.300;-6.260;2024-03-22T08:01:00;8.02;82.27
71942;DHT22;59997;53.300;-6.260;2024-03-22T08:03:25;8.06;82.04
71942;DHT22;59997;53.300;-6.260;2024-03-22T08:05:50;8.31;82.00
71942;DHT22;59997;53.300;-6.260;2024-03-22T08:08:16;8.65;80.76
71942;DHT22;59997;53.300;-6.260;2024-03-22T08:10:42;9.25;79.67
71942;DHT22;59997;53.300;-6.260;2024-03-22T08:13:08;9.49;78.74
71942;DHT22;59997;53.300;-6.260;2024-03-22T08:15:34;9.55;77.69
71942;DHT22;59997;53.300;-6.260;2024-03-22T08:18:00;9.83;77.18
71942;DHT22;59997;53.300;-6.260;2024-03-22T08:20:25;9.67;76.27
71942;DHT22;59997;53.300;-6.260;2024-03-22T08:22:51;9.62;76.80
71942;DHT22;59997;53.300;-6.260;2024-03-22T08:25:16;9.48;76.68
71942;DHT22;59997;53.300;-6.260;2024-03-22T08:27:46;9.59;76.47
71942;DHT22;59997;53.300;-6.260;2024-03-22T08:30:12;9.86;76.16
71942;DHT22;59997;53.300;-6.260;2024-03-22T08:32:38;9.74;76.51
71942;DHT22;59997;53.300;-6.260;2024-03-22T08:35:04;9.72;76.29
71942;DHT22;59997;53.300;-6.260;2024-03-22T08:37:31;9.98;75.78
71942;DHT22;59997;53.300;-6.260;2024-03-22T08:39:56;10.08;75.64
71942;DHT22;59997;53.300;-6.260;2024-03-22T08:42:22;10.39;74.34
71942;DHT22;59997;53.300;-6.260;2024-03-22T08:44:47;10.29;74.22
71942;DHT22;59997;53.300;-6.260;2024-03-22T08:47:13;10.39;73.52
71942;DHT22;59997;53.300;-6.260;2024-03-22T08:49:39;10.32;73.69
71942;DHT22;59997;53.300;-6.260;2024-03-22T08:52:06;10.49;73.22
71942;DHT22;59997;53.300;-6.260;2024-03-22T08:54:32;10.80;71.48
71942;DHT22;59997;53.300;-6.260;2024-03-22T08:56:58;10.11;72.41
71942;DHT22;59997;53.300;-6.260;2024-03-22T08:59:23;10.46;72.36
71942;DHT22;59997;53.300;-6.260;2024-03-22T09:01:49;10.53;71.33
71942;DHT22;59997;53.300;-6.260;2024-03-22T09:04:15;10.56;70.75
71942;DHT22;59997;53.300;-6.260;2024-03-22T09:06:41;11.14;69.74
71942;DHT22;59997;53.300;-6.260;2024-03-22T09:09:06;10.73;69.90
71942;DHT22;59997;53.300;-6.260;2024-03-22T09:11:33;10.80;69.48
71942;DHT22;59997;53.300;-6.260;2024-03-22T09:13:58;11.12;69.59
71942;DHT22;59997;53.300;-6.260;2024-03-22T09:16:24;10.81;69.87
71942;DHT22;59997;53.300;-6.260;2024-03-22T09:18:50;10.85;69.63
71942;DHT22;59997;53.300;-6.260;2024-03-22T09:21:16;10.57;68.37
71942;DHT22;59997;53.300;-6.260;2024-03-22T09:23:41;11.19;68.85
71942;DHT22;59997;53.300;-6.260;2024-03-22T09:26:07;10.94;67.93
71942;DHT22;59997;53.300;-6.260;2024-03-22T09:28:32;11.43;66.49
71942;DHT22;59997;53.300;-6.260;2024-03-22T09:30:58;11.11;67.53
71942;DHT22;59997;53.300;-6.260;2024-03-22T09:33:23;11.11;67.12
71942;DHT22;59997;53.300;-6.260;2024-03-22T09:35:49;11.01;66.20
71942;DHT22;59997;53.300;-6.260;2024-03-22T09:38:14;10.61;66.35
71942;DHT22;59997;53.300;-6.260;2024-03-22T09:40:41;10.43;66.04
71942;DHT22;59997;53.300;-6.260;2024-03-22T09:43:07;10.69;66.55
71942;DHT22;59997;53.300;-6.260;2024-03-22T09:45:33;10.93;64.98
71942;DHT22;59997;53.300;-6.260;2024-03-22T09:47:59;11.07;66.31
71942;DHT22;59997;53.300;-6.260;2024-03-22T09:50:25;10.90;64.36
71942;DHT22;59997;53.300;-6.260;2024-03-22T09:52:56;10.85;65.09
71942;DHT22;59997;53.300;-6.260;2024-03-22T09:55:24;11.80;63.44
71942;DHT22;59997;53.300;-6.260;2024-03-22T09:57:50;11.74;62.30
71942;DHT22;59997;53.300;-6.260;2024-03-22T10:00:18;12.11;64.75
71942;DHT22;59997;53.300;-6.260;2024-03-22T10:02:49;11.88;62.44
71942;DHT22;59997;53.300;-6.260;2024-03-22T10:05:14;11.54;63.16
71942;DHT22;59997;53.300;-6.260;2024-03-22T10:07:40;11.67;61.43
71942;DHT22;59997;53.300;-6.260;2024-03-22T10:10:07;11.19;63.69
71942;DHT22;59997;53.300;-6.260;2024-03-22T10:12:33;11.57;60.56
71942;DHT22;59997;53.300;-6.260;2024-03-22T10:14:58;11.29;60.45
71942;DHT22;59997;53.300;-6.260;2024-03-22T10:17:26;11.25;59.54
71942;DHT22;59997;53.300;-6.260;2024-03-22T10:19:52;12.09;59.77
71942;DHT22;59997;53.300;-6.260;2024-03-22T10:22:18;12.05;58.08
71942;DHT22;59997;53.300;-6.260;2024-03-22T10:24:44;11.07;60.10
71942;DHT22;59997;53.300;-6.260;2024-03-22T10:27:10;11.80;59.14
71942;DHT22;59997;53.300;-6.260;2024-03-22T10:29:36;11.88;58.73
71942;DHT22;59997;53.300;-6.260;2024-03-22T10:32:02;12.21;57.94
71942;DHT22;59997;53.300;-6.260;2024-03-22T10:34:28;12.34;56.25
71942;DHT22;59997;53.300;-6.260;2024-03-22T10:36:55;11.66;58.07
71942;DHT22;59997;53.300;-6.260;2024-03-22T10:39:22;12.13;58.53
71942;DHT22;59997;53.300;-6.260;2024-03-22T10:41:48;12.58;57.29
71942;DHT22;59997;53.300;-6.260;2024-03-22T10:44:15;11.66;59.25
71942;DHT22;59997;53.300;-6.260;2024-03-22T10:46:47;12.29;59.32
71942;DHT22;59997;53.300;-6.260;2024-03-22T10:49:18;12.71;57.58
71942;DHT22;59997;53.300;-6.260;2024-03-22T10:51:47;12.68;56.87
71942;DHT22;59997;53.300;-6.260;2024-03-22T10:54:18;12.36;57.97
71942;DHT22;59997;53.300;-6.260;2024-03-22T10:56:45;12.74;57.99
71942;DHT22;59997;53.300;-6.260;2024-03-22T10:59:18;13.30;57.83
71942;DHT22;59997;53.300;-6.260;2024-03-22T11:01:49;12.89;56.41
71942;DHT22;59997;53.300;-6.260;2024-03-22T11:04:20;11.94;55.87
71942;DHT22;59997;53.300;-6.260;2024-03-22T11:06:51;12.01;57.53
71942;DHT22;59997;53.300;-6.260;2024-03-22T11:09:23;12.18;57.14
71942;DHT22;59997;53.300;-6.260;2024-03-22T11:11:55;12.50;55.81
71942;DHT22;59997;53.300;-6.260;2024-03-22T11:14:21;12.47;56.88
71942;DHT22;59997;53.300;-6.260;2024-03-22T11:16:48;12.78;55.63
71942;DHT22;59997;53.300;-6.260;2024-03-22T11:19:14;12.73;54.40
71942;DHT22;59997;53.300;-6.260;2024-03-22T11:21:40;12.50;54.73
71942;DHT22;59997;53.300;-6.260;2024-03-22T11:24:05;12.22;55.02
71942;DHT22;59997;53.300;-6.260;2024-03-22T11:26:32;11.94;57.28
71942;DHT22;59997;53.300;-6.260;2024-03-22T11:28:58;11.71;56.65
71942;DHT22;59997;53.300;-6.260;2024-03-22T11:31:24;12.13;58.14
71942;DHT22;59997;53.300;-6.260;2024-03-22T11:33:53;12.54;56.81
71942;DHT22;59997;53.300;-6.260;2024-03-22T11:36:19;12.71;56.22
71942;DHT22;59997;53.300;-6.260;2024-03-22T11:38:44;12.57;55.27
71942;DHT22;59997;53.300;-6.260;2024-03-22T11:41:11;12.89;54.51
71942;DHT22;59997;53.300;-6.260;2024-03-22T11:43:38;13.13;56.37
71942;DHT22;59997;53.300;-6.260;2024-03-22T11:46:04;12.46;55.52
71942;DHT22;59997;53.300;-6.260;2024-03-22T11:48:29;12.36;55.38
71942;DHT22;59997;53.300;-6.260;2024-03-22T11:50:55;12.29;54.89
71942;DHT22;59997;53.300;-6.260;2024-03-22T11:53:21;12.43;54.78
71942;DHT22;59997;53.300;-6.260;2024-03-22T11:55:49;12.51;55.98
71942;DHT22;59997;53.300;-6.260;2024-03-22T11:58:14;12.41;55.50
71942;DHT22;59997;53.300;-6.260;2024-03-22T12:00:42;12.65;55.47
71942;DHT22;59997;53.300;-6.260;2024-03-22T12:03:08;12.39;55.05
71942;DHT22;59997;53.300;-6.260;2024-03-22T12:05:34;12.09;56.99
71942;DHT22;59997;53.300;-6.260;2024-03-22T12:07:59;12.33;57.95
71942;DHT22;59997;53.300;-6.260;2024-03-22T12:10:25;12.34;57.19
71942;DHT22;59997;53.300;-6.260;2024-03-22T12:12:50;12.74;57.00
71942;DHT22;59997;53.300;-6.260;2024-03-22T12:15:16;12.98;56.28
71942;DHT22;59997;53.300;-6.260;2024-03-22T12:17:41;12.43;56.40
71942;DHT22;59997;53.300;-6.260;2024-03-22T12:20:09;12.15;55.64
71942;DHT22;59997;53.300;-6.260;2024-03-22T12:22:34;12.54;55.98
71942;DHT22;59997;53.300;-6.260;2024-03-22T12:25:00;12.64;55.43
71942;DHT22;59997;53.300;-6.260;2024-03-22T12:27:26;12.84;56.40
71942;DHT22;59997;53.300;-6.260;2024-03-22T12:29:51;13.12;54.99
71942;DHT22;59997;53.300;-6.260;2024-03-22T12:32:17;13.62;54.29
71942;DHT22;59997;53.300;-6.260;2024-03-22T12:34:42;13.24;54.01
71942;DHT22;59997;53.300;-6.260;2024-03-22T12:37:09;13.15;55.52
71942;DHT22;59997;53.300;-6.260;2024-03-22T12:39:34;13.15;55.09
71942;DHT22;59997;53.300;-6.260;2024-03-22T12:42:00;12.92;55.89
71942;DHT22;59997;53.300;-6.260;2024-03-22T12:44:25;12.93;57.12
71942;DHT22;59997;53.300;-6.260;2024-03-22T12:46:51;12.84;55.73
71942;DHT22;59997;53.300;-6.260;2024-03-22T12:49:17;12.63;57.26
71942;DHT22;59997;53.300;-6.260;2024-03-22T12:51:43;12.81;58.31
71942;DHT22;59997;53.300;-6.260;2024-03-22T12:54:08;13.27;56.28
71942;DHT22;59997;53.300;-6.260;2024-03-22T12:56:34;13.06;54.70
71942;DHT22;59997;53.300;-6.260;2024-03-22T12:59:00;13.37;56.37
71942;DHT22;59997;53.300;-6.260;2024-03-22T13:01:25;12.60;55.19
71942;DHT22;59997;53.300;-6.260;2024-03-22T13:03:51;13.02;56.11
71942;DHT22;59997;53.300;-6.260;2024-03-22T13:06:16;12.53;55.74
71942;DHT22;59997;53.300;-6.260;2024-03-22T13:08:42;12.96;53.84
71942;DHT22;59997;53.300;-6.260;2024-03-22T13:11:08;12.81;54.72
71942;DHT22;59997;53.300;-6.260;2024-03-22T13:13:37;12.87;55.17
71942;DHT22;59997;53.300;-6.260;2024-03-22T13:16:03;12.78;55.46
71942;DHT22;59997;53.300;-6.260;2024-03-22T13:18:29;13.55;55.49
71942;DHT22;59997;53.300;-6.260;2024-03-22T13:20:55;13.30;54.57
71942;DHT22;59997;53.300;-6.260;2024-03-22T13:23:21;12.91;55.99
71942;DHT22;59997;53.300;-6.260;2024-03-22T13:25:46;12.77;57.20
71942;DHT22;59997;53.300;-6.260;2024-03-22T13:28:12;12.81;56.85
71942;DHT22;59997;53.300;-6.260;2024-03-22T13:30:37;12.71;57.47
71942;DHT22;59997;53.300;-6.260;2024-03-22T13:33:04;12.98;57.66
71942;DHT22;59997;53.300;-6.260;2024-03-22T13:35:30;12.91;56.91
71942;DHT22;59997;53.300;-6.260;2024-03-22T13:37:58;12.87;57.79
71942;DHT22;59997;53.300;-6.260;2024-03-22T13:40:24;13.02;59.35
71942;DHT22;59997;53.300;-6.260;2024-03-22T13:42:53;13.48;57.35
71942;DHT22;59997;53.300;-6.260;2024-03-22T13:45:19;13.27;58.51
71942;DHT22;59997;53.300;-6.260;2024-03-22T13:47:44;12.80;58.97
71942;DHT22;59997;53.300;-6.260;2024-03-22T13:50:09;13.26;57.69
71942;DHT22;59997;53.300;-6.260;2024-03-22T13:52:35;13.36;55.72
71942;DHT22;59997;53.300;-6.260;2024-03-22T13:55:01;13.15;57.32
71942;DHT22;59997;53.300;-6.260;2024-03-22T13:57:27;13.50;55.61
71942;DHT22;59997;53.300;-6.260;2024-03-22T13:59:53;13.26;57.16
71942;DHT22;59997;53.300;-6.260;2024-03-22T14:02:18;12.12;58.16
71942;DHT22;59997;53.300;-6.260;2024-03-22T14:04:45;11.85;59.85
71942;DHT22;59997;53.300;-6.260;2024-03-22T14:07:10;11.81;60.37
71942;DHT22;59997;53.300;-6.260;2024-03-22T14:09:36;11.98;60.34
71942;DHT22;59997;53.300;-6.260;2024-03-22T14:12:01;12.41;58.73
71942;DHT22;59997;53.300;-6.260;2024-03-22T14:14:28;12.50;56.89
71942;DHT22;59997;53.300;-6.260;2024-03-22T14:16:54;12.61;58.59
71942;DHT22;59997;53.300;-6.260;2024-03-22T14:19:20;12.40;56.73
71942;DHT22;59997;53.300;-6.260;2024-03-22T14:21:46;11.97;57.26
71942;DHT22;59997;53.300;-6.260;2024-03-22T14:24:12;11.80;57.94
71942;DHT22;59997;53.300;-6.260;2024-03-22T14:26:37;11.66;59.32
71942;DHT22;59997;53.300;-6.260;2024-03-22T14:29:08;12.02;59.82
71942;DHT22;59997;53.300;-6.260;2024-03-22T14:31:34;11.88;58.46
71942;DHT22;59997;53.300;-6.260;2024-03-22T14:33:59;11.46;59.75
71942;DHT22;59997;53.300;-6.260;2024-03-22T14:36:25;11.32;61.88
71942;DHT22;59997;53.300;-6.260;2024-03-22T14:38:51;11.16;62.09
71942;DHT22;59997;53.300;-6.260;2024-03-22T14:41:16;11.46;62.63
71942;DHT22;59997;53.300;-6.260;2024-03-22T14:43:42;11.43;63.20
71942;DHT22;59997;53.300;-6.260;2024-03-22T14:46:07;11.29;62.88
71942;DHT22;59997;53.300;-6.260;2024-03-22T14:48:33;11.57;63.06
71942;DHT22;59997;53.300;-6.260;2024-03-22T14:50:58;11.14;62.51
71942;DHT22;59997;53.300;-6.260;2024-03-22T14:53:24;10.35;64.35
71942;DHT22;59997;53.300;-6.260;2024-03-22T14:58:20;9.20;68.15
71942;DHT22;59997;53.300;-6.260;2024-03-22T15:00:56;8.81;68.25
71942;DHT22;59997;53.300;-6.260;2024-03-22T15:03:22;8.93;66.64
71942;DHT22;59997;53.300;-6.260;2024-03-22T15:05:49;9.56;67.09
71942;DHT22;59997;53.300;-6.260;2024-03-22T15:08:15;9.86;66.86
71942;DHT22;59997;53.300;-6.260;2024-03-22T15:10:40;9.95;67.76
71942;DHT22;59997;53.300;-6.260;2024-03-22T15:13:06;10.32;67.86
71942;DHT22;59997;53.300;-6.260;2024-03-22T15:15:35;10.28;68.15
71942;DHT22;59997;53.300;-6.260;2024-03-22T15:18:00;9.66;69.46
71942;DHT22;59997;53.300;-6.260;2024-03-22T15:20:25;8.81;72.54